Página principal
METAR-TAF:

METAR-TAF

Aeroportos :

Aeroporto de Sevilha

Sevilha, Espanha

latitude: 37-25N, longitude: 005-54W, altura: 34 m

Observação actual do tempo

O boletim foi feito há 21 minutos, às 05:30 UTC
Vento 3 kt de su-sudeste, variando entre es-sudeste e su-sudoeste
Temperatura 16°C
Humidade 88%
Pressão 1013 hPa
Visibilidade 10 km ou mais
Poucas nuvensa uma altura de 1200 ft
Nuvens fragmentadasa uma altura de 4500 ft

METAR: LEZL 260530Z 16003KT 120V200 9999 FEW012 BKN045 16/14 Q1013 NOSIG

Hora: 07:51 (05:51 UTC)

Previsão

O boletim foi feito há 30 minutos, às 05:21 UTC
Previsão válida de 26 às 05 UTC a 27 às 03 UTC
Vento 3 kt com direcção variável
Visibilidade 10 km ou mais
Poucas nuvensa uma altura de 3000 ft
Probabilidade 30% :
Temporariamente
de 26 às 05 UTC a 26 às 07 UTC
Visibilidade: 3000 m
Nuvens fragmentadasa uma altura de 1200 ft
chuva, neblina

TAF: LEZL 260521Z 2605/2703 VRB03KT 9999 FEW030 TX25/2615Z TN14/2606Z PROB30 TEMPO 2605/2607 3000 RA BR BKN012

Observações e previsões do tempo de mais de 4000 aeroportos (mensagens METAR e TAF).

As estações disponíveis são os pontos amarelos e vermelhos sobre o mapa.

Mova o rato sobre o mapa para ver o nome da estação.

Depois clique no ponto para visualizar as observações e previsões meteorológicas.

Para alterar o mapa : clique nos botões verdes com uma cruz preta para aumentar o zoom; no botão verde com uma pitada de zoom; ou nas setas verdes para mapas adjacentes.


METAR-TAF: